Rochester, NY

5:15 AM EDT on August 28, 2014 (GMT -0400)
Monroe Ave at Cobbs Hill | Change Station
CLOSE
Current Station
Personal Weather Station
Location: Rochester, NY
Elevation: 528 ft
Nearby Weather Stations

Elev 528 ft 43.14 °N, 77.58 °W | Updated 2 minutes ago

Scattered Clouds
Scattered Clouds
58.3 °F
Feels Like 58.3 °F
N
0.0
Wind Variable Wind from WSW
Gusts 2.0 mph

Today
High -- | Low -- °F
--% Chance of Precip.
Yesterday
High -- | Low -- °F
Precip. -- in
6:30 AM 7:52 PM
Waxing Crescent, 7% visible
Pressure 30.03 in
Visibility 10.0 miles
Clouds Few 2000 ft
Scattered Clouds 3000 ft
Dew Point 54 °F
Humidity 84%
Rainfall 0.00 in
Snow Depth Not available.
UV 0 out of 12
Pollen 9.90 out of 12
Air Quality Not available.
Flu Activity Not available.
METAR KROC 280854Z 24005KT 10SM FEW020 SCT030 12/12 A3002 RMK AO2 SLP167 T01220117 56004

More Conditions Fewer Conditions

Pressure 30.03 in
Visibility 10.0 miles
Clouds Few 2000 ft
Scattered Clouds 3000 ft
Dew Point 54 °F
Humidity 84%
Rainfall 0.00 in
Snow Depth Not available.
UV 0 out of 12
Pollen 9.90 out of 12
Air Quality Not available.
Flu Activity Not available.
METAR KROC 280854Z 24005KT 10SM FEW020 SCT030 12/12 A3002 RMK AO2 SLP167 T01220117 56004

More Conditions Fewer Conditions

10-Day Weather Forecast

Almanac

Astronomy

Aug. 28, 2014 Rise Set
Actual Time 6:30 AM EDT 7:52 PM EDT
Civil Twilight 6:00 AM EDT 8:21 PM EDT
Nautical Twilight 5:24 AM EDT 8:57 PM EDT
Astronomical Twilight 4:47 AM EDT 9:34 PM EDT
Moon 9:26 AM EDT 9:08 PM EDT
Length of Visible Light 14h 21m
Length of Day
13h 21m
Tomorrow will be 2m 48s shorter.
Waxing Crescent, 7% of the Moon is Illuminated
Today
Waxing Crescent
Sep 2
First Quarter
Sep 8
Full
Sep 15
Last Quarter
Sep 24
New

Today's Extremes

State Highs State Lows

Community

WunderPhotos

Upload Photos

1,747,918 photos uploaded!

Nearby

Air Quality

  Air Quality AQ Index Pollutant
Thursday Good
OZONE
Thursday Good
PM2.5

Snow Depth

Station Depth Elevation
No new snow has been reported.

Earthquake Activity

City Distance Mag. Time & Date
No recent earthquake activity has been reported nearby.
Minimum magnitude displayed is 2.5.

Coastal Water Temperatures

Place Temperature
Buffalo, NY 73.0 °F
Alexandria Bay, NY 70.0 °F

Nearby Weather Stations